Time;durP1;ratioP1;P1;durP2;ratioP2;P2;SDS_P1;SDS_P2;PMS_P1;PMS_P2;Temp;Humidity;BMP_temperature;BMP_pressure;BME280_temperature;BME280_humidity;BME280_pressure;Samples;Min_cycle;Max_cycle;Signal;HPM_P1;HPM_P2
2022/04/25 14:06:02;;;;;;;;;3.25;3.25;;;;;;;;1578372;27;83105;-69
2022/04/25 14:06:47;;;;;;;;;3.00;3.00;;;;;;;;1571200;27;83337;-69
2022/04/25 14:07:34;;;;;;;;;1.67;1.67;;;;;;;;1566780;27;83442;-67
2022/04/25 14:08:20;;;;;;;;;2.00;2.00;;;;;;;;1557381;27;83923;-69
2022/04/25 14:09:07;;;;;;;;;1.00;1.00;;;;;;;;1559232;28;83217;-68
2022/04/25 14:09:52;;;;;;;;;1.75;1.75;;;;;;;;1559363;28;84086;-69
2022/04/25 14:10:39;;;;;;;;;1.00;1.00;;;;;;;;1559276;28;83632;-69
2022/04/25 14:11:25;;;;;;;;;0.50;0.50;;;;;;;;1558997;28;83723;-69
2022/04/25 14:12:13;;;;;;;;;0.50;0.50;;;;;;;;1559161;28;83617;-69
2022/04/25 14:12:59;;;;;;;;;1.50;1.50;;;;;;;;1559393;27;83605;-69
2022/04/25 14:13:45;;;;;;;;;1.00;1.00;;;;;;;;1559176;27;84115;-66
2022/04/25 14:14:30;;;;;;;;;1.50;1.50;;;;;;;;1559821;27;83518;-66
2022/04/25 14:15:17;;;;;;;;;2.00;2.00;;;;;;;;1559714;27;85471;-67
2022/04/25 14:16:02;;;;;;;;;2.25;2.00;;;;;;;;1558773;27;84914;-67
2022/04/25 14:16:47;;;;;;;;;1.33;1.33;;;;;;;;1559884;27;83337;-67
2022/04/25 14:17:33;;;;;;;;;1.00;1.00;;;;;;;;1558215;28;83821;-66
2022/04/25 14:18:18;;;;;;;;;0.00;0.00;;;;;;;;1558245;28;83756;-66
2022/04/25 14:19:03;;;;;;;;;0.00;0.00;;;;;;;;1559239;28;83754;-66
2022/04/25 14:19:48;;;;;;;;;0.00;0.00;;;;;;;;1559124;28;83583;-66
2022/04/25 14:20:34;;;;;;;;;0.00;0.00;;;;;;;;1559044;28;83432;-67
2022/04/25 14:21:19;;;;;;;;;1.00;1.00;;;;;;;;1558519;28;83365;-67
2022/04/25 14:22:04;;;;;;;;;2.00;2.00;;;;;;;;1558849;28;83667;-67
2022/04/25 14:22:50;;;;;;;;;1.25;1.25;;;;;;;;1558708;28;83659;-67
2022/04/25 14:23:36;;;;;;;;;1.00;1.00;;;;;;;;1558666;28;83608;-66
2022/04/25 14:24:21;;;;;;;;;1.00;1.00;;;;;;;;1558834;27;83536;-66
2022/04/25 14:25:07;;;;;;;;;1.00;1.00;;;;;;;;1559006;28;83621;-66
2022/04/25 14:25:54;;;;;;;;;1.00;1.00;;;;;;;;1558592;28;83978;-66
2022/04/25 14:26:40;;;;;;;;;1.00;1.00;;;;;;;;1559082;27;83728;-67
2022/04/25 14:27:25;;;;;;;;;1.00;1.00;;;;;;;;1562837;27;83568;-67
2022/04/25 14:28:10;;;;;;;;;2.00;2.00;;;;;;;;1559088;28;84168;-66
2022/04/25 14:28:55;;;;;;;;;1.00;1.00;;;;;;;;1558149;28;86907;-66
2022/04/25 14:29:41;;;;;;;;;1.00;1.00;;;;;;;;1558516;28;83368;-66
2022/04/25 14:30:27;;;;;;;;;0.50;0.50;;;;;;;;1558430;28;83971;-67
2022/04/25 14:31:12;;;;;;;;;0.75;0.75;;;;;;;;1559296;27;83793;-66
2022/04/25 14:31:57;;;;;;;;;1.00;1.00;;;;;;;;1563288;27;83307;-66
2022/04/25 14:32:43;;;;;;;;;1.50;1.50;;;;;;;;1557312;28;84147;-66
2022/04/25 14:33:28;;;;;;;;;1.00;1.00;;;;;;;;1558606;28;83866;-65
2022/04/25 14:34:13;;;;;;;;;1.50;1.50;;;;;;;;1559097;28;84273;-65
2022/04/25 14:34:58;;;;;;;;;1.25;1.25;;;;;;;;1558661;28;84287;-66
2022/04/25 14:35:44;;;;;;;;;1.00;1.00;;;;;;;;1558066;28;85256;-66
2022/04/25 14:36:29;;;;;;;;;1.00;1.00;;;;;;;;1558099;28;83177;-66
2022/04/25 14:37:14;;;;;;;;;1.00;1.00;;;;;;;;1558624;28;84168;-66
2022/04/25 14:38:00;;;;;;;;;1.00;1.00;;;;;;;;1559627;27;84095;-68
2022/04/25 14:38:45;;;;;;;;;2.00;2.00;;;;;;;;1557625;28;84484;-66
2022/04/25 14:39:31;;;;;;;;;1.00;1.00;;;;;;;;1558369;28;84051;-66
2022/04/25 14:40:16;;;;;;;;;2.00;2.00;;;;;;;;1558454;27;83254;-67
2022/04/25 14:41:02;;;;;;;;;1.40;1.40;;;;;;;;1558402;27;85088;-68
2022/04/25 14:41:47;;;;;;;;;1.50;1.50;;;;;;;;1559010;27;84028;-70
2022/04/25 14:42:33;;;;;;;;;1.00;1.00;;;;;;;;1558273;27;84235;-71
2022/04/25 14:43:18;;;;;;;;;1.00;1.00;;;;;;;;1558709;27;84082;-67
2022/04/25 14:44:03;;;;;;;;;1.00;1.00;;;;;;;;1559023;28;84130;-68
2022/04/25 14:44:48;;;;;;;;;1.50;1.50;;;;;;;;1558514;28;83984;-66
2022/04/25 14:45:33;;;;;;;;;2.75;2.75;;;;;;;;1558744;28;83175;-67
2022/04/25 14:46:19;;;;;;;;;1.00;1.00;;;;;;;;1559081;28;84169;-67
2022/04/25 14:47:06;;;;;;;;;1.75;1.75;;;;;;;;1558805;28;84072;-67
2022/04/25 14:47:51;;;;;;;;;1.00;1.00;;;;;;;;1556802;28;83538;-68
2022/04/25 14:48:38;;;;;;;;;1.00;1.00;;;;;;;;1558039;27;83942;-67
2022/04/25 14:54:20;;;;;;;;;1.00;1.00;;;;;;;;1561118;28;83358;-67
2022/04/25 14:54:44;;;;;;;;;2.00;2.00;;;;;;;;1556252;28;83421;-67
2022/04/25 14:55:30;;;;;;;;;1.00;1.00;;;;;;;;1558757;28;83393;-67
2022/04/25 14:56:15;;;;;;;;;1.00;1.00;;;;;;;;1558683;28;83201;-67
2022/04/25 14:57:01;;;;;;;;;1.75;1.75;;;;;;;;1558775;27;83386;-67
2022/04/25 14:57:50;;;;;;;;;1.00;1.00;;;;;;;;1558705;28;83494;-66
2022/04/25 14:58:35;;;;;;;;;1.60;1.60;;;;;;;;1558746;27;83355;-68
2022/04/25 14:59:20;;;;;;;;;1.00;1.00;;;;;;;;1559213;28;83846;-68
2022/04/25 15:00:06;;;;;;;;;1.00;1.00;;;;;;;;1558940;28;83488;-68
2022/04/25 15:00:53;;;;;;;;;1.00;1.00;;;;;;;;1558482;28;83499;-68
2022/04/25 15:01:38;;;;;;;;;2.00;2.00;;;;;;;;1558647;27;83180;-68
2022/04/25 15:02:24;;;;;;;;;1.50;1.50;;;;;;;;1557031;28;83555;-69
2022/04/25 15:03:09;;;;;;;;;1.00;1.00;;;;;;;;1551872;28;83668;-69
2022/04/25 15:03:55;;;;;;;;;2.00;2.00;;;;;;;;1553858;28;83498;-69
2022/04/25 15:04:40;;;;;;;;;1.00;1.00;;;;;;;;1558319;28;83422;-69
2022/04/25 15:05:25;;;;;;;;;1.00;1.00;;;;;;;;1558424;28;83356;-69
2022/04/25 15:06:10;;;;;;;;;1.25;1.25;;;;;;;;1558678;28;83450;-69
2022/04/25 15:06:55;;;;;;;;;1.50;1.50;;;;;;;;1558763;28;83329;-69
2022/04/25 15:07:41;;;;;;;;;0.00;0.00;;;;;;;;1560864;27;83564;-69
2022/04/25 15:08:26;;;;;;;;;1.00;1.00;;;;;;;;1558904;27;83405;-68
2022/04/25 15:09:12;;;;;;;;;1.00;1.00;;;;;;;;1558791;28;83257;-69
2022/04/25 15:09:57;;;;;;;;;1.80;1.80;;;;;;;;1559088;27;83514;-70
2022/04/25 15:10:44;;;;;;;;;2.00;2.00;;;;;;;;1558477;28;83319;-72
2022/04/25 15:11:29;;;;;;;;;1.00;1.00;;;;;;;;1558753;27;83234;-71
2022/04/25 15:12:14;;;;;;;;;1.50;1.50;;;;;;;;1561692;27;83533;-70
2022/04/25 15:13:00;;;;;;;;;1.00;1.00;;;;;;;;1558070;28;83829;-70
2022/04/25 15:13:45;;;;;;;;;1.00;1.00;;;;;;;;1558489;28;83359;-71
2022/04/25 15:14:30;;;;;;;;;1.00;1.00;;;;;;;;1558644;28;83501;-71
2022/04/25 15:15:15;;;;;;;;;2.00;2.00;;;;;;;;1559322;27;83415;-70
2022/04/25 15:16:03;;;;;;;;;2.00;2.00;;;;;;;;1557787;28;83632;-70
2022/04/25 15:16:48;;;;;;;;;1.00;1.00;;;;;;;;1557832;28;83353;-69
2022/04/25 15:17:33;;;;;;;;;2.00;2.00;;;;;;;;1552450;28;84098;-70
2022/04/25 15:18:18;;;;;;;;;1.00;1.00;;;;;;;;1554624;28;83958;-69
2022/04/25 15:19:04;;;;;;;;;2.00;2.00;;;;;;;;1554696;28;83772;-70
2022/04/25 15:19:49;;;;;;;;;1.00;1.00;;;;;;;;1553871;28;83921;-70
2022/04/25 15:20:34;;;;;;;;;1.00;1.00;;;;;;;;1554181;28;83337;-69
2022/04/25 15:21:20;;;;;;;;;1.00;1.00;;;;;;;;1554924;28;83512;-69
2022/04/25 15:22:06;;;;;;;;;2.00;2.00;;;;;;;;1552886;28;83387;-69
2022/04/25 15:22:51;;;;;;;;;1.40;1.40;;;;;;;;1553637;28;83730;-69
2022/04/25 15:23:36;;;;;;;;;2.00;2.00;;;;;;;;1554147;28;83925;-68
2022/04/25 15:24:22;;;;;;;;;2.50;2.50;;;;;;;;1552058;28;83327;-68
2022/04/25 15:25:07;;;;;;;;;1.00;1.00;;;;;;;;1553415;28;86781;-67
2022/04/25 15:25:52;;;;;;;;;2.00;2.00;;;;;;;;1552204;28;83952;-68
2022/04/25 15:26:38;;;;;;;;;1.50;1.50;;;;;;;;1550505;28;83556;-69
2022/04/25 15:27:23;;;;;;;;;1.00;1.00;;;;;;;;1552625;28;83528;-70
2022/04/25 15:28:12;;;;;;;;;2.00;2.00;;;;;;;;1554678;28;84962;-70
2022/04/25 15:28:58;;;;;;;;;1.00;1.00;;;;;;;;1554128;28;83796;-69
2022/04/25 15:29:44;;;;;;;;;1.00;1.00;;;;;;;;1554534;28;83964;-69
2022/04/25 15:30:30;;;;;;;;;1.20;1.20;;;;;;;;1554694;28;83369;-70
2022/04/25 15:31:15;;;;;;;;;1.00;1.00;;;;;;;;1553049;28;84191;-71
2022/04/25 15:32:00;;;;;;;;;1.75;1.75;;;;;;;;1550979;28;83452;-76
2022/04/25 15:32:46;;;;;;;;;1.50;1.50;;;;;;;;1551777;28;83969;-71
2022/04/25 15:33:31;;;;;;;;;1.00;1.00;;;;;;;;1553081;28;83355;-72
2022/04/25 15:34:16;;;;;;;;;1.75;1.75;;;;;;;;1554245;28;84112;-72
2022/04/25 15:35:02;;;;;;;;;1.00;1.00;;;;;;;;1553495;28;84231;-72
2022/04/25 15:35:47;;;;;;;;;1.75;1.75;;;;;;;;1554493;28;83734;-72
2022/04/25 15:36:32;;;;;;;;;2.00;2.00;;;;;;;;1553651;28;83736;-72
2022/04/25 15:37:17;;;;;;;;;1.00;1.00;;;;;;;;1553281;28;84057;-71
2022/04/25 15:38:03;;;;;;;;;1.00;1.00;;;;;;;;1554443;28;84318;-69
2022/04/25 15:38:48;;;;;;;;;1.00;1.00;;;;;;;;1553134;28;84116;-70
2022/04/25 15:39:35;;;;;;;;;1.00;1.00;;;;;;;;1554710;28;84442;-70
2022/04/25 15:40:20;;;;;;;;;1.80;1.80;;;;;;;;1554468;28;83281;-70
2022/04/25 15:41:05;;;;;;;;;0.00;0.00;;;;;;;;1552040;28;83903;-70
2022/04/25 15:41:51;;;;;;;;;1.00;1.00;;;;;;;;1554003;28;84103;-70
2022/04/25 15:42:37;;;;;;;;;2.00;2.00;;;;;;;;1554162;28;83286;-68
2022/04/25 15:43:23;;;;;;;;;1.00;1.00;;;;;;;;1554456;28;84245;-68
2022/04/25 15:44:08;;;;;;;;;0.00;0.00;;;;;;;;1553437;28;83237;-68
2022/04/25 15:44:53;;;;;;;;;1.00;1.00;;;;;;;;1553866;28;86224;-68
2022/04/25 15:45:39;;;;;;;;;0.75;0.75;;;;;;;;1554336;28;83224;-72
2022/04/25 15:46:25;;;;;;;;;1.40;1.40;;;;;;;;1549922;28;83907;-69
2022/04/25 15:47:10;;;;;;;;;0.75;0.75;;;;;;;;1553386;28;83980;-69
2022/04/25 15:47:58;;;;;;;;;1.50;1.50;;;;;;;;1554317;28;83246;-72
2022/04/25 15:48:44;;;;;;;;;1.00;1.00;;;;;;;;1553860;28;84138;-69
2022/04/25 15:49:29;;;;;;;;;1.25;1.25;;;;;;;;1554549;28;83038;-69
2022/04/25 15:50:15;;;;;;;;;1.50;1.50;;;;;;;;1553845;28;84234;-69
2022/04/25 15:51:00;;;;;;;;;1.00;1.00;;;;;;;;1554219;28;83137;-69
2022/04/25 15:51:45;;;;;;;;;1.00;1.00;;;;;;;;1554026;28;84095;-69
2022/04/25 15:52:31;;;;;;;;;1.25;1.25;;;;;;;;1553948;28;84392;-70
2022/04/25 15:53:16;;;;;;;;;1.00;1.00;;;;;;;;1554581;28;84165;-69
2022/04/25 15:58:17;;;;;;;;;2.00;2.00;;;;;;;;1548354;28;83303;-67
2022/04/25 15:59:05;;;;;;;;;2.00;2.00;;;;;;;;1552624;28;83331;-68
2022/04/25 15:59:50;;;;;;;;;1.00;1.00;;;;;;;;1554225;28;83286;-67
2022/04/25 16:00:35;;;;;;;;;2.00;2.00;;;;;;;;1554320;28;83832;-67
2022/04/25 16:01:20;;;;;;;;;1.00;1.00;;;;;;;;1553162;28;84530;-67
2022/04/25 16:02:06;;;;;;;;;0.00;0.00;;;;;;;;1553812;28;83475;-68
2022/04/25 16:02:52;;;;;;;;;2.00;2.00;;;;;;;;1553838;28;83286;-67
2022/04/25 16:03:37;;;;;;;;;1.80;1.80;;;;;;;;1554398;28;83533;-67
2022/04/25 16:04:23;;;;;;;;;1.00;1.00;;;;;;;;1554017;28;84785;-68
2022/04/25 16:05:09;;;;;;;;;2.00;2.00;;;;;;;;1554174;28;83421;-68
2022/04/25 16:05:55;;;;;;;;;2.00;2.00;;;;;;;;1554021;28;83364;-68
2022/04/25 16:06:40;;;;;;;;;3.00;3.00;;;;;;;;1554096;28;83409;-68
2022/04/25 16:07:25;;;;;;;;;2.00;2.00;;;;;;;;1553958;28;83717;-68
2022/04/25 16:08:16;;;;;;;;;1.00;1.00;;;;;;;;1553969;28;83362;-68
2022/04/25 16:09:01;;;;;;;;;1.00;1.00;;;;;;;;1554161;28;83388;-67
2022/04/25 16:09:48;;;;;;;;;1.25;1.25;;;;;;;;1554455;28;83820;-67
2022/04/25 16:10:33;;;;;;;;;1.00;1.00;;;;;;;;1553026;28;84043;-66
2022/04/25 16:11:18;;;;;;;;;2.00;2.00;;;;;;;;1553997;28;83389;-66
2022/04/25 16:12:03;;;;;;;;;0.75;0.75;;;;;;;;1553914;28;83504;-66
2022/04/25 16:12:49;;;;;;;;;1.00;1.00;;;;;;;;1553859;28;83329;-67
2022/04/25 16:13:34;;;;;;;;;0.75;0.75;;;;;;;;1553661;28;83276;-67
2022/04/25 16:14:19;;;;;;;;;0.75;0.75;;;;;;;;1554078;28;83656;-66
2022/04/25 16:15:06;;;;;;;;;1.00;1.00;;;;;;;;1554060;28;83488;-66
2022/04/25 16:15:52;;;;;;;;;1.20;1.20;;;;;;;;1552634;28;83289;-66
2022/04/25 16:16:38;;;;;;;;;0.40;0.40;;;;;;;;1553795;28;83564;-66
2022/04/25 16:17:24;;;;;;;;;1.00;1.00;;;;;;;;1553489;28;83465;-67
2022/04/25 16:18:09;;;;;;;;;1.00;1.00;;;;;;;;1556139;28;83441;-66
2022/04/25 16:18:54;;;;;;;;;1.00;1.00;;;;;;;;1554263;28;83362;-67
2022/04/25 16:19:43;;;;;;;;;1.00;1.00;;;;;;;;1554735;28;83914;-66
2022/04/25 16:20:30;;;;;;;;;0.60;0.60;;;;;;;;1553844;28;83810;-67
2022/04/25 16:21:16;;;;;;;;;1.80;1.80;;;;;;;;1554130;28;83757;-67
2022/04/25 16:22:01;;;;;;;;;2.00;2.00;;;;;;;;1553993;28;83370;-66
2022/04/25 16:22:47;;;;;;;;;1.00;1.00;;;;;;;;1553611;28;86100;-66
2022/04/25 16:23:32;;;;;;;;;0.80;0.80;;;;;;;;1553775;28;83374;-65
2022/04/25 16:24:17;;;;;;;;;1.00;1.00;;;;;;;;1554055;28;83714;-67
2022/04/25 16:25:03;;;;;;;;;1.00;1.00;;;;;;;;1553862;28;84006;-67
2022/04/25 16:25:52;;;;;;;;;1.00;1.00;;;;;;;;1553815;28;84617;-67
2022/04/25 16:26:37;;;;;;;;;1.00;1.00;;;;;;;;1554117;28;84032;-67
2022/04/25 16:27:22;;;;;;;;;2.00;2.00;;;;;;;;1553908;28;84048;-67
2022/04/25 16:28:07;;;;;;;;;1.00;1.00;;;;;;;;1553642;28;83501;-67
2022/04/25 16:28:53;;;;;;;;;1.75;1.75;;;;;;;;1553230;28;83328;-67
2022/04/25 16:29:38;;;;;;;;;1.00;1.00;;;;;;;;1553732;28;83849;-67
2022/04/25 16:30:26;;;;;;;;;0.00;0.00;;;;;;;;1552893;28;84499;-67
2022/04/25 16:31:12;;;;;;;;;1.20;1.20;;;;;;;;1553038;28;83738;-66
2022/04/25 16:31:57;;;;;;;;;1.50;1.50;;;;;;;;1553277;28;83618;-66
2022/04/25 16:32:42;;;;;;;;;1.00;1.00;;;;;;;;1554318;28;83574;-67
2022/04/25 16:33:28;;;;;;;;;1.50;1.50;;;;;;;;1552743;28;83293;-67
2022/04/25 16:34:13;;;;;;;;;0.00;0.00;;;;;;;;1554561;28;83225;-67
2022/04/25 16:34:58;;;;;;;;;1.00;1.00;;;;;;;;1554127;28;83482;-68
2022/04/25 16:35:44;;;;;;;;;1.00;1.00;;;;;;;;1553851;28;84644;-66
2022/04/25 16:36:29;;;;;;;;;1.00;1.00;;;;;;;;1546877;28;83407;-68
2022/04/25 16:37:15;;;;;;;;;1.00;1.00;;;;;;;;1547013;28;83857;-69
2022/04/25 16:38:00;;;;;;;;;0.40;0.40;;;;;;;;1553281;28;84454;-69
2022/04/25 16:38:46;;;;;;;;;1.00;1.00;;;;;;;;1553528;28;83644;-65
2022/04/25 16:39:33;;;;;;;;;1.00;1.00;;;;;;;;1553845;28;83535;-65
2022/04/25 16:40:18;;;;;;;;;1.00;1.00;;;;;;;;1556770;28;84005;-67
2022/04/25 16:41:03;;;;;;;;;1.00;1.00;;;;;;;;1553513;28;86195;-65
2022/04/25 16:41:49;;;;;;;;;1.25;1.25;;;;;;;;1554024;28;84542;-65
2022/04/25 16:42:34;;;;;;;;;0.25;0.25;;;;;;;;1553742;28;83881;-64
2022/04/25 16:43:19;;;;;;;;;1.00;1.00;;;;;;;;1554011;28;84164;-65
2022/04/25 16:44:06;;;;;;;;;1.00;1.00;;;;;;;;1553307;28;83407;-65
2022/04/25 16:44:51;;;;;;;;;1.00;1.00;;;;;;;;1554151;28;84137;-64
2022/04/25 16:45:36;;;;;;;;;1.00;1.00;;;;;;;;1553858;28;84121;-64
2022/04/25 16:46:22;;;;;;;;;1.00;1.00;;;;;;;;1552982;28;83781;-65
2022/04/25 16:47:08;;;;;;;;;0.25;0.25;;;;;;;;1554057;28;84116;-64
2022/04/25 16:47:53;;;;;;;;;0.00;0.00;;;;;;;;1554112;28;84096;-64
2022/04/25 16:48:38;;;;;;;;;1.00;1.00;;;;;;;;1553756;28;84086;-64
2022/04/25 16:49:23;;;;;;;;;1.00;1.00;;;;;;;;1554255;28;84423;-67
2022/04/25 16:50:09;;;;;;;;;1.00;1.00;;;;;;;;1554204;28;83975;-65
2022/04/25 16:50:56;;;;;;;;;1.00;1.00;;;;;;;;1554574;28;84132;-65
2022/04/25 16:51:41;;;;;;;;;0.80;0.80;;;;;;;;1550676;28;83733;-65
2022/04/25 16:52:26;;;;;;;;;1.00;1.00;;;;;;;;1547879;28;83114;-65
2022/04/25 16:53:12;;;;;;;;;1.00;1.00;;;;;;;;1548049;28;83938;-66
2022/04/25 16:53:57;;;;;;;;;1.00;1.00;;;;;;;;1548246;28;84319;-66
2022/04/25 16:54:43;;;;;;;;;1.00;1.00;;;;;;;;1548186;28;84150;-66
2022/04/25 16:55:29;;;;;;;;;1.00;1.00;;;;;;;;1548116;28;83237;-65
2022/04/25 16:56:15;;;;;;;;;0.75;0.75;;;;;;;;1547885;28;84429;-65
2022/04/25 16:57:00;;;;;;;;;2.00;2.00;;;;;;;;1554166;28;84339;-65
2022/04/25 16:57:46;;;;;;;;;0.25;0.25;;;;;;;;1554508;28;84393;-65
2022/04/25 16:58:31;;;;;;;;;1.00;1.00;;;;;;;;1554211;28;83856;-64
2022/04/25 16:59:16;;;;;;;;;1.00;1.00;;;;;;;;1554014;28;83057;-65
2022/04/25 17:00:03;;;;;;;;;1.00;1.00;;;;;;;;1554374;28;84444;-65
2022/04/25 17:00:48;;;;;;;;;1.00;1.00;;;;;;;;1554370;28;84573;-65
2022/04/25 17:01:34;;;;;;;;;0.00;0.00;;;;;;;;1556761;28;84043;-65
2022/04/25 17:02:19;;;;;;;;;0.50;0.50;;;;;;;;1554388;28;82857;-63
2022/04/25 17:03:05;;;;;;;;;1.00;1.00;;;;;;;;1554187;28;83297;-63
2022/04/25 17:03:50;;;;;;;;;1.00;1.00;;;;;;;;1550717;28;83957;-71
2022/04/25 17:04:35;;;;;;;;;0.00;0.00;;;;;;;;1552843;28;83703;-67
2022/04/25 17:05:21;;;;;;;;;1.00;1.00;;;;;;;;1553396;28;83562;-66
2022/04/25 17:06:06;;;;;;;;;1.00;1.00;;;;;;;;1551939;28;83564;-69
2022/04/25 17:06:51;;;;;;;;;0.50;0.50;;;;;;;;1551604;28;83466;-68
2022/04/25 17:07:36;;;;;;;;;0.00;0.00;;;;;;;;1552812;28;83505;-68
2022/04/25 17:08:24;;;;;;;;;1.00;1.00;;;;;;;;1553750;28;83695;-68
2022/04/25 17:09:10;;;;;;;;;1.75;1.75;;;;;;;;1551312;28;82989;-68
2022/04/25 17:09:55;;;;;;;;;2.00;2.00;;;;;;;;1550683;28;83667;-67
2022/04/25 17:10:41;;;;;;;;;1.00;1.00;;;;;;;;1550820;28;83478;-67
2022/04/25 17:11:26;;;;;;;;;1.00;1.00;;;;;;;;1555357;28;83469;-67
2022/04/25 17:12:11;;;;;;;;;1.00;1.00;;;;;;;;1553693;28;83396;-67
2022/04/25 17:12:56;;;;;;;;;0.33;0.33;;;;;;;;1554264;28;83401;-67
2022/04/25 17:13:42;;;;;;;;;1.00;1.00;;;;;;;;1552095;28;85729;-66
2022/04/25 17:14:27;;;;;;;;;0.25;0.25;;;;;;;;1549927;28;83551;-69
2022/04/25 17:15:12;;;;;;;;;1.00;1.00;;;;;;;;1550308;28;83460;-68
2022/04/25 17:15:57;;;;;;;;;1.00;1.00;;;;;;;;1547872;28;83282;-69
2022/04/25 17:16:43;;;;;;;;;1.00;1.00;;;;;;;;1547746;28;83486;-69
2022/04/25 17:17:28;;;;;;;;;1.00;1.00;;;;;;;;1553742;28;83512;-72
2022/04/25 17:18:14;;;;;;;;;1.00;1.00;;;;;;;;1552440;28;83406;-71
2022/04/25 17:18:59;;;;;;;;;1.00;1.00;;;;;;;;1552256;28;83343;-70
2022/04/25 17:19:44;;;;;;;;;1.00;1.00;;;;;;;;1549392;28;84159;-73
2022/04/25 17:20:31;;;;;;;;;0.00;0.00;;;;;;;;1553992;28;83058;-74
2022/04/25 17:21:16;;;;;;;;;0.75;0.75;;;;;;;;1553747;28;83295;-74
2022/04/25 17:22:02;;;;;;;;;1.00;1.00;;;;;;;;1550856;28;83380;-69
2022/04/25 17:22:47;;;;;;;;;0.67;0.67;;;;;;;;1551016;28;83453;-70
2022/04/25 17:23:32;;;;;;;;;1.00;1.00;;;;;;;;1552601;28;83477;-76
2022/04/25 17:24:18;;;;;;;;;0.00;0.00;;;;;;;;1549744;28;83438;-72
2022/04/25 17:25:03;;;;;;;;;0.00;0.00;;;;;;;;1553685;28;83592;-71
2022/04/25 17:25:49;;;;;;;;;0.00;0.00;;;;;;;;1553826;28;83732;-71
2022/04/25 17:26:34;;;;;;;;;0.00;0.00;;;;;;;;1553484;28;83524;-69
2022/04/25 17:27:19;;;;;;;;;0.00;0.00;;;;;;;;1554046;28;83536;-70
2022/04/25 17:28:05;;;;;;;;;1.00;1.00;;;;;;;;1554102;28;83475;-69
2022/04/25 17:28:50;;;;;;;;;1.00;1.00;;;;;;;;1553824;28;83247;-71
2022/04/25 17:29:38;;;;;;;;;0.00;0.00;;;;;;;;1553557;28;83463;-71
2022/04/25 17:30:24;;;;;;;;;1.00;1.00;;;;;;;;1553408;28;83324;-71
2022/04/25 17:35:31;;;;;;;;;0.00;0.00;;;;;;;;1547851;28;83279;-73
2022/04/25 17:36:17;;;;;;;;;1.00;1.00;;;;;;;;1548021;28;83393;-73
2022/04/25 17:41:59;;;;;;;;;1.00;1.00;;;;;;;;1553435;28;83443;-72
2022/04/25 17:43:18;;;;;;;;;0.50;0.50;;;;;;;;1553645;28;85005;-72
2022/04/25 17:44:43;;;;;;;;;1.00;1.00;;;;;;;;1554089;28;83372;-70
2022/04/25 17:46:19;;;;;;;;;1.00;1.00;;;;;;;;1553895;28;86271;-72
